Time;durP1;ratioP1;P1;durP2;ratioP2;P2;SDS_P1;SDS_P2;PMS_P1;PMS_P2;Temp;Humidity;BMP_temperature;BMP_pressure;BME280_temperature;BME280_humidity;BME280_pressure;Samples;Min_cycle;Max_cycle;Signal;HPM_P1;HPM_P2
2021/12/17 00:00:21;;;;;;;465.50;424.33;;;8.90;99.90;;;;;;5009718;28;20229;-79
2021/12/17 00:05:42;;;;;;;471.50;430.77;;;8.80;99.90;;;;;;5027725;28;20263;-80
2021/12/17 00:08:08;;;;;;;470.30;428.87;;;8.90;99.90;;;;;;5009369;28;20202;-80
2021/12/17 00:10:34;;;;;;;468.57;427.90;;;8.80;99.90;;;;;;5010912;28;20223;-79
2021/12/17 00:13:00;;;;;;;474.77;434.30;;;8.80;99.90;;;;;;5010395;28;20875;-80
2021/12/17 00:15:26;;;;;;;476.20;435.93;;;8.80;99.90;;;;;;4995408;28;20687;-80
2021/12/17 00:17:58;;;;;;;472.70;433.50;;;8.80;99.90;;;;;;5002413;28;20190;-80
2021/12/17 00:52:28;;;;;;;484.13;444.17;;;8.90;99.90;;;;;;5032842;28;20224;-78
2021/12/17 00:54:54;;;;;;;487.40;446.10;;;8.90;99.90;;;;;;5012294;28;20191;-79
2021/12/17 00:57:24;;;;;;;484.40;443.97;;;8.90;99.90;;;;;;4996863;28;20293;-79
2021/12/17 00:59:53;;;;;;;483.37;443.63;;;8.90;99.90;;;;;;5030466;28;20187;-80
2021/12/17 01:02:24;;;;;;;485.70;446.20;;;8.90;99.90;;;;;;5030582;28;20183;-80
2021/12/17 01:04:58;;;;;;;485.63;444.13;;;8.90;99.90;;;;;;5029287;28;20555;-80
2021/12/17 01:07:27;;;;;;;492.23;449.37;;;8.90;99.90;;;;;;5011326;28;20270;-80
2021/12/17 01:09:53;;;;;;;486.63;445.93;;;8.90;99.90;;;;;;5031086;28;20182;-80
2021/12/17 01:12:22;;;;;;;488.30;448.33;;;8.90;99.90;;;;;;5010804;28;20224;-79
2021/12/17 01:14:48;;;;;;;494.70;454.90;;;8.90;99.90;;;;;;5031683;28;20211;-80
2021/12/17 01:17:16;;;;;;;494.50;454.20;;;8.90;99.90;;;;;;4984737;28;20197;-80
2021/12/17 01:25:34;;;;;;;496.03;455.57;;;8.90;99.90;;;;;;4933077;29;20194;-81
2021/12/17 01:36:13;;;;;;;499.70;457.73;;;8.90;99.90;;;;;;5016579;28;20194;-80
2021/12/17 01:43:57;;;;;;;498.37;448.13;;;8.80;99.90;;;;;;5010292;28;20191;-79
2021/12/17 01:46:28;;;;;;;493.70;451.43;;;8.90;99.90;;;;;;5013514;28;20199;-79
2021/12/17 01:49:17;;;;;;;490.33;448.97;;;8.90;99.90;;;;;;5030351;28;20230;-80
2021/12/17 01:59:52;;;;;;;469.97;430.47;;;8.90;99.90;;;;;;5030581;28;20274;-80
2021/12/17 02:02:18;;;;;;;474.53;431.23;;;8.90;99.90;;;;;;5028697;28;20194;-77
2021/12/17 02:04:44;;;;;;;494.00;452.57;;;8.90;99.90;;;;;;5009978;28;20207;-79
2021/12/17 02:07:10;;;;;;;488.93;443.87;;;8.80;99.90;;;;;;5029711;28;20195;-79
2021/12/17 02:31:43;;;;;;;457.17;419.80;;;8.60;99.90;;;;;;5028463;28;20509;-79
2021/12/17 02:34:39;;;;;;;452.30;413.80;;;8.60;99.90;;;;;;4979447;28;20288;-79
2021/12/17 02:37:07;;;;;;;450.47;413.07;;;8.70;99.90;;;;;;5028984;28;20187;-79
2021/12/17 02:47:30;;;;;;;450.80;411.13;;;8.80;99.90;;;;;;4998470;28;20249;-80
2021/12/17 02:49:56;;;;;;;448.30;410.30;;;8.80;99.90;;;;;;5009898;28;20206;-80
2021/12/17 02:52:29;;;;;;;463.53;416.83;;;8.80;99.90;;;;;;4993286;28;21014;-79
2021/12/17 02:54:57;;;;;;;457.80;418.77;;;8.80;99.90;;;;;;5028071;28;20183;-79
2021/12/17 02:57:24;;;;;;;463.83;422.93;;;8.80;99.90;;;;;;5011202;28;20752;-79
2021/12/17 02:59:50;;;;;;;479.10;430.47;;;8.80;99.90;;;;;;5008744;28;21418;-79
2021/12/17 03:02:18;;;;;;;476.77;433.40;;;8.80;99.90;;;;;;5000896;28;20214;-79
2021/12/17 03:04:44;;;;;;;478.03;437.17;;;8.70;99.90;;;;;;5011223;28;20222;-80
2021/12/17 03:07:12;;;;;;;509.10;463.23;;;8.70;99.90;;;;;;4987169;28;20222;-79
2021/12/17 03:12:16;;;;;;;592.73;542.10;;;8.70;99.90;;;;;;5009238;28;20236;-79
2021/12/17 03:14:50;;;;;;;599.67;547.97;;;8.70;99.90;;;;;;5025895;28;20225;-80
2021/12/17 03:17:28;;;;;;;596.47;545.80;;;8.70;99.90;;;;;;5028582;28;20249;-80
2021/12/17 03:25:04;;;;;;;598.87;547.53;;;8.60;99.90;;;;;;5010395;28;20229;-79
2021/12/17 03:27:29;;;;;;;603.47;552.40;;;8.50;99.90;;;;;;4973947;28;20187;-79
2021/12/17 03:29:55;;;;;;;594.10;544.10;;;8.60;99.90;;;;;;4991718;28;20245;-78
2021/12/17 03:32:21;;;;;;;602.63;552.80;;;8.60;99.90;;;;;;5008807;28;20283;-79
2021/12/17 03:34:47;;;;;;;589.90;540.60;;;8.60;99.90;;;;;;5009373;28;20214;-79
2021/12/17 03:37:12;;;;;;;590.50;540.10;;;8.60;99.90;;;;;;4992970;28;20238;-80
2021/12/17 03:39:38;;;;;;;583.73;534.47;;;8.70;99.90;;;;;;5010885;28;20187;-79
2021/12/17 03:42:07;;;;;;;582.60;532.87;;;8.70;99.90;;;;;;5027136;28;20202;-80
2021/12/17 03:44:33;;;;;;;582.37;532.83;;;8.70;99.90;;;;;;5009305;28;20572;-80
2021/12/17 03:47:00;;;;;;;608.80;557.67;;;8.80;99.90;;;;;;5001870;28;20207;-79
2021/12/17 03:49:26;;;;;;;604.27;552.30;;;8.70;99.90;;;;;;5010117;28;20699;-79
2021/12/17 03:52:04;;;;;;;607.27;554.73;;;8.80;99.90;;;;;;5027889;28;20743;-79
2021/12/17 03:54:35;;;;;;;602.03;550.50;;;8.80;99.90;;;;;;5011191;28;20205;-80
2021/12/17 03:57:01;;;;;;;601.70;550.40;;;8.80;99.90;;;;;;4994418;28;20240;-80
2021/12/17 03:59:27;;;;;;;601.47;550.50;;;8.80;99.90;;;;;;4971985;28;20852;-79
2021/12/17 04:01:53;;;;;;;600.07;548.77;;;8.80;99.90;;;;;;5028967;28;20211;-79
2021/12/17 04:04:18;;;;;;;600.27;548.87;;;8.80;99.90;;;;;;4993531;28;20211;-79
2021/12/17 04:06:46;;;;;;;605.17;551.07;;;8.80;99.90;;;;;;5028820;28;20198;-80
2021/12/17 04:09:11;;;;;;;597.17;546.73;;;8.80;99.90;;;;;;5009859;28;20190;-80
2021/12/17 04:11:37;;;;;;;595.20;545.70;;;8.80;99.90;;;;;;4993513;28;20238;-80
2021/12/17 04:14:03;;;;;;;603.33;552.60;;;8.90;99.90;;;;;;4986507;28;20198;-80
2021/12/17 04:16:32;;;;;;;598.83;548.80;;;8.90;99.90;;;;;;5011412;28;20187;-79
2021/12/17 04:18:59;;;;;;;597.20;547.23;;;8.90;99.90;;;;;;4987531;28;20292;-80
2021/12/17 04:21:25;;;;;;;602.60;552.43;;;8.90;99.90;;;;;;5010667;28;20190;-80
2021/12/17 04:23:54;;;;;;;600.53;550.70;;;9.00;99.90;;;;;;5025825;28;20214;-79
2021/12/17 04:26:21;;;;;;;595.73;546.17;;;8.90;99.90;;;;;;5011142;28;20655;-79
2021/12/17 04:28:50;;;;;;;608.93;560.17;;;8.90;99.90;;;;;;5028754;28;20221;-79
2021/12/17 04:31:18;;;;;;;601.20;552.27;;;9.00;99.90;;;;;;5028037;28;20221;-79
2021/12/17 04:33:45;;;;;;;600.47;551.30;;;9.00;99.90;;;;;;5027848;28;20210;-80
2021/12/17 04:36:16;;;;;;;604.83;555.70;;;9.00;99.90;;;;;;5027539;28;20253;-77
2021/12/17 04:38:42;;;;;;;601.40;552.13;;;9.00;99.90;;;;;;5010288;28;20190;-78
2021/12/17 04:41:39;;;;;;;605.53;556.60;;;9.00;99.90;;;;;;5028545;28;20214;-80
2021/12/17 04:44:16;;;;;;;612.07;563.07;;;8.90;99.90;;;;;;4998327;28;20186;-79
2021/12/17 04:46:56;;;;;;;619.97;570.57;;;8.90;99.90;;;;;;4994888;28;20190;-80
2021/12/17 04:57:37;;;;;;;613.83;565.00;;;8.90;99.90;;;;;;5027722;28;20964;-80
2021/12/17 05:00:08;;;;;;;619.53;570.43;;;8.80;99.90;;;;;;4993645;28;20225;-80
2021/12/17 05:02:40;;;;;;;628.17;578.90;;;8.80;99.90;;;;;;5028467;28;20697;-80
2021/12/17 05:05:08;;;;;;;625.97;577.40;;;8.80;99.90;;;;;;4994192;28;20648;-80
2021/12/17 05:07:37;;;;;;;632.93;584.80;;;8.80;99.90;;;;;;4992925;28;20191;-79
2021/12/17 05:20:53;;;;;;;638.10;589.43;;;8.70;99.90;;;;;;5016574;28;20210;-79
2021/12/17 05:23:23;;;;;;;635.97;587.17;;;8.70;99.90;;;;;;5013296;28;20674;-80
2021/12/17 05:25:50;;;;;;;648.57;599.47;;;8.70;99.90;;;;;;4992490;28;20596;-80
2021/12/17 05:28:16;;;;;;;648.47;599.07;;;8.70;99.90;;;;;;5033000;28;20191;-80
2021/12/17 05:30:46;;;;;;;649.20;599.50;;;8.70;99.90;;;;;;4997815;28;20237;-81
2021/12/17 05:33:17;;;;;;;645.43;596.33;;;8.70;99.90;;;;;;5015190;28;20478;-79
2021/12/17 05:35:43;;;;;;;641.30;592.70;;;8.70;99.90;;;;;;5014032;28;20218;-80
2021/12/17 05:38:09;;;;;;;637.80;589.63;;;8.70;99.90;;;;;;5013516;28;20314;-80
2021/12/17 05:40:36;;;;;;;632.47;585.60;;;8.60;99.90;;;;;;4996366;28;20544;-80
2021/12/17 05:43:04;;;;;;;631.17;583.93;;;8.60;99.90;;;;;;5032383;28;20187;-81
2021/12/17 05:46:09;;;;;;;634.80;587.10;;;8.60;99.90;;;;;;5012516;28;20187;-81
2021/12/17 05:48:23;;;;;;;626.37;580.27;;;8.60;99.90;;;;;;5003987;28;20659;-80
2021/12/17 05:50:53;;;;;;;628.03;581.40;;;8.50;99.90;;;;;;5029413;28;20782;-80
2021/12/17 05:53:19;;;;;;;628.43;582.03;;;8.60;99.90;;;;;;5014428;28;20587;-80
2021/12/17 05:55:46;;;;;;;642.03;595.77;;;8.50;99.90;;;;;;5032213;28;20282;-80
2021/12/17 05:58:12;;;;;;;625.93;579.83;;;8.50;99.90;;;;;;4992442;28;20206;-80
2021/12/17 06:00:40;;;;;;;622.70;576.97;;;8.50;99.90;;;;;;4996953;28;20291;-79
2021/12/17 06:03:06;;;;;;;623.87;578.33;;;8.50;99.90;;;;;;4997985;28;20265;-80
2021/12/17 06:05:34;;;;;;;636.43;590.53;;;8.50;99.90;;;;;;5010346;28;20286;-83
2021/12/17 06:08:00;;;;;;;630.77;584.37;;;8.50;99.90;;;;;;5006366;28;20301;-80
2021/12/17 06:10:27;;;;;;;630.70;584.30;;;8.50;99.90;;;;;;5013204;28;20509;-80
2021/12/17 06:12:52;;;;;;;628.53;582.50;;;8.50;99.90;;;;;;5014801;28;20207;-80
2021/12/17 06:15:19;;;;;;;625.00;580.20;;;8.50;99.90;;;;;;4997687;28;20199;-80
2021/12/17 06:17:46;;;;;;;620.43;575.20;;;8.50;99.90;;;;;;5031979;28;20618;-80
2021/12/17 06:20:14;;;;;;;614.03;568.33;;;8.50;99.90;;;;;;5013348;28;20223;-81
2021/12/17 06:22:41;;;;;;;611.00;565.27;;;8.60;99.90;;;;;;4996430;28;20195;-80
2021/12/17 06:25:08;;;;;;;619.53;574.47;;;8.60;99.90;;;;;;5029204;28;20258;-80
2021/12/17 06:27:35;;;;;;;603.70;559.00;;;8.60;99.90;;;;;;4973616;28;20609;-80
2021/12/17 06:30:02;;;;;;;610.47;565.17;;;8.60;99.90;;;;;;4996020;28;20270;-79
2021/12/17 06:32:28;;;;;;;598.40;554.60;;;8.60;99.90;;;;;;5029096;28;20301;-80
2021/12/17 06:34:55;;;;;;;594.53;551.13;;;8.60;99.90;;;;;;5013366;28;20210;-81
2021/12/17 06:37:20;;;;;;;590.20;547.87;;;8.70;99.90;;;;;;4998767;28;20183;-80
2021/12/17 06:39:47;;;;;;;602.30;558.50;;;8.60;99.90;;;;;;5031996;28;20191;-79
2021/12/17 06:42:12;;;;;;;606.53;562.40;;;8.60;99.90;;;;;;5031232;28;20550;-81
2021/12/17 06:44:40;;;;;;;594.33;550.83;;;8.60;99.90;;;;;;4980360;28;20207;-80
2021/12/17 06:47:12;;;;;;;584.97;542.00;;;8.60;99.90;;;;;;4973846;28;20201;-81
2021/12/17 06:55:04;;;;;;;579.77;537.37;;;8.70;99.90;;;;;;5031335;28;20265;-81
2021/12/17 07:06:06;;;;;;;604.97;560.33;;;8.70;99.90;;;;;;5016051;28;20607;-80
2021/12/17 07:11:36;;;;;;;621.00;575.07;;;8.70;99.90;;;;;;5001623;28;20922;-81
2021/12/17 07:22:19;;;;;;;604.93;559.50;;;8.80;99.90;;;;;;5030911;28;20258;-80
2021/12/17 07:28:02;;;;;;;613.83;567.53;;;8.90;99.90;;;;;;5030842;28;20687;-80
2021/12/17 07:35:48;;;;;;;597.97;553.07;;;8.80;99.90;;;;;;5013383;28;20691;-81
2021/12/17 07:41:03;;;;;;;588.37;544.97;;;8.70;99.90;;;;;;5013734;28;20662;-79
2021/12/17 07:43:38;;;;;;;589.80;545.50;;;8.80;99.90;;;;;;4988391;28;20195;-80
2021/12/17 07:46:06;;;;;;;578.67;535.37;;;8.80;99.90;;;;;;5012031;28;20198;-81
2021/12/17 07:48:32;;;;;;;593.93;550.27;;;8.80;99.90;;;;;;5010987;28;20226;-80
2021/12/17 07:51:02;;;;;;;583.67;539.90;;;8.80;99.90;;;;;;4995687;28;20299;-80
2021/12/17 07:53:29;;;;;;;583.97;539.93;;;8.80;99.90;;;;;;4995324;28;20230;-80
2021/12/17 07:55:55;;;;;;;597.47;553.57;;;8.80;99.90;;;;;;5011726;28;20201;-81
2021/12/17 07:58:21;;;;;;;585.80;542.33;;;8.80;99.90;;;;;;5012096;28;20187;-81
2021/12/17 08:00:47;;;;;;;586.43;542.80;;;8.80;99.90;;;;;;4991652;28;20583;-81
2021/12/17 08:03:14;;;;;;;573.97;531.27;;;8.70;99.90;;;;;;4995565;28;20186;-81
2021/12/17 08:05:42;;;;;;;580.17;537.30;;;8.80;99.90;;;;;;5011660;28;20214;-82
2021/12/17 08:08:09;;;;;;;576.97;533.67;;;8.80;99.90;;;;;;4999135;28;20286;-81
2021/12/17 08:10:34;;;;;;;575.70;532.83;;;8.90;99.90;;;;;;5015858;28;20301;-81
2021/12/17 08:13:14;;;;;;;573.50;530.73;;;8.90;99.90;;;;;;5011756;23;20251;-90
2021/12/17 08:15:51;;;;;;;575.40;532.13;;;8.90;99.90;;;;;;5000872;28;20773;-91
2021/12/17 08:26:23;;;;;;;547.53;506.90;;;8.90;99.90;;;;;;5007344;28;20195;-79
2021/12/17 08:29:22;;;;;;;761.90;706.77;;;8.90;99.90;;;;;;4991859;28;20188;-79
2021/12/17 08:31:41;;;;;;;751.77;696.83;;;8.90;99.90;;;;;;5000952;28;20216;-79
2021/12/17 08:34:06;;;;;;;735.27;681.33;;;8.90;99.90;;;;;;4998849;28;20204;-79
2021/12/17 08:36:32;;;;;;;733.60;680.20;;;9.00;99.90;;;;;;4984481;28;20563;-79
2021/12/17 08:38:58;;;;;;;723.90;671.07;;;8.90;99.90;;;;;;4990256;28;20184;-80
2021/12/17 08:41:26;;;;;;;705.93;654.27;;;9.00;99.90;;;;;;4991422;28;20226;-79
2021/12/17 08:43:52;;;;;;;700.73;649.13;;;9.00;99.90;;;;;;5000080;28;20207;-79
2021/12/17 08:46:17;;;;;;;688.03;636.87;;;9.00;99.90;;;;;;4990342;28;20195;-80
2021/12/17 08:48:43;;;;;;;679.93;629.50;;;9.10;99.90;;;;;;4984032;28;20192;-80
2021/12/17 08:51:09;;;;;;;672.07;621.90;;;9.10;99.90;;;;;;5008392;28;20278;-81
2021/12/17 08:53:38;;;;;;;663.30;614.07;;;9.10;99.90;;;;;;5011899;28;20242;-80
2021/12/17 08:56:06;;;;;;;674.07;624.83;;;9.10;99.90;;;;;;4993738;28;20273;-79
2021/12/17 08:58:33;;;;;;;663.07;614.13;;;9.10;99.90;;;;;;5003317;28;20572;-79
2021/12/17 09:01:02;;;;;;;650.23;601.90;;;9.10;99.90;;;;;;4994388;28;20198;-80
2021/12/17 09:03:28;;;;;;;650.20;602.23;;;9.10;99.90;;;;;;4994237;28;20648;-80
2021/12/17 09:05:54;;;;;;;640.47;593.40;;;9.10;99.90;;;;;;5011902;28;20301;-79
2021/12/17 09:08:22;;;;;;;632.07;585.67;;;9.20;99.90;;;;;;4986021;28;20687;-79
2021/12/17 09:10:48;;;;;;;626.37;580.30;;;9.20;99.90;;;;;;5011637;28;20202;-81
2021/12/17 09:13:14;;;;;;;627.43;581.53;;;9.20;99.90;;;;;;4988801;28;20184;-80
2021/12/17 09:15:40;;;;;;;625.63;581.53;;;9.30;99.90;;;;;;4991706;28;20198;-78
2021/12/17 09:18:06;;;;;;;611.33;566.97;;;9.30;99.90;;;;;;5024428;28;20198;-80
2021/12/17 09:20:32;;;;;;;595.20;552.30;;;9.30;99.90;;;;;;5033690;28;20694;-79
2021/12/17 09:22:58;;;;;;;596.83;553.73;;;9.30;99.90;;;;;;5009109;28;20235;-78
2021/12/17 09:25:23;;;;;;;597.57;555.60;;;9.30;99.90;;;;;;4980704;28;20560;-80
2021/12/17 09:27:49;;;;;;;566.87;526.20;;;9.30;99.90;;;;;;4981183;28;20187;-79
2021/12/17 09:30:17;;;;;;;564.20;524.20;;;9.40;99.90;;;;;;5014947;28;20677;-79
2021/12/17 09:32:44;;;;;;;560.43;521.37;;;9.50;99.90;;;;;;5006134;28;20232;-80
2021/12/17 09:35:11;;;;;;;548.40;510.00;;;9.60;99.90;;;;;;5004024;28;20218;-79
2021/12/17 09:37:38;;;;;;;536.57;499.60;;;9.60;99.90;;;;;;4979954;28;20202;-79
2021/12/17 09:40:06;;;;;;;527.37;491.00;;;9.70;99.90;;;;;;4994942;28;20664;-79
2021/12/17 09:42:36;;;;;;;513.67;478.37;;;9.70;99.90;;;;;;4993868;28;20179;-78
2021/12/17 09:45:04;;;;;;;511.43;476.37;;;9.70;99.90;;;;;;4994133;28;20330;-80
2021/12/17 09:47:29;;;;;;;489.53;455.87;;;9.70;99.90;;;;;;5012652;28;20218;-80
2021/12/17 09:49:57;;;;;;;476.13;443.47;;;9.80;99.90;;;;;;5004701;28;20620;-80
2021/12/17 09:52:24;;;;;;;467.80;435.57;;;9.80;99.90;;;;;;5012152;28;20572;-80
2021/12/17 09:54:50;;;;;;;462.70;431.13;;;9.90;99.90;;;;;;4993390;28;20667;-80
2021/12/17 09:57:17;;;;;;;461.53;429.70;;;9.90;99.90;;;;;;5011571;28;20572;-81
2021/12/17 09:59:43;;;;;;;458.47;427.50;;;10.00;99.90;;;;;;5004611;28;20671;-79
2021/12/17 10:02:09;;;;;;;449.87;419.13;;;10.00;99.90;;;;;;4970602;28;20195;-80
2021/12/17 10:04:36;;;;;;;444.97;415.07;;;10.00;99.90;;;;;;4994036;28;20203;-81
2021/12/17 10:07:25;;;;;;;428.27;398.77;;;10.00;99.90;;;;;;4978929;28;20337;-80
2021/12/17 10:09:57;;;;;;;436.70;407.10;;;10.00;99.90;;;;;;4993903;28;20227;-80
2021/12/17 10:12:28;;;;;;;424.23;395.40;;;10.00;99.90;;;;;;4993003;28;20627;-81
2021/12/17 10:15:11;;;;;;;430.53;401.70;;;10.00;99.90;;;;;;5009379;28;20338;-79
2021/12/17 10:17:58;;;;;;;425.17;396.83;;;9.90;99.90;;;;;;4987396;28;21025;-80
2021/12/17 10:20:25;;;;;;;421.23;393.10;;;9.90;99.90;;;;;;5011727;28;20664;-80
2021/12/17 10:23:01;;;;;;;420.03;392.23;;;9.90;99.90;;;;;;4986363;28;20258;-80
2021/12/17 10:25:28;;;;;;;418.97;391.63;;;9.90;99.90;;;;;;5013822;28;20182;-80
2021/12/17 10:28:04;;;;;;;424.87;397.27;;;9.90;99.90;;;;;;5023171;28;20191;-82
2021/12/17 10:30:33;;;;;;;409.40;382.93;;;9.90;99.90;;;;;;5022283;28;20190;-80
2021/12/17 10:33:03;;;;;;;420.43;393.00;;;9.90;99.90;;;;;;5007638;28;20217;-79
2021/12/17 10:35:31;;;;;;;488.33;456.97;;;10.00;99.90;;;;;;5030653;28;20221;-79
2021/12/17 10:38:02;;;;;;;485.03;453.87;;;9.90;99.90;;;;;;5012744;28;20182;-81
2021/12/17 10:40:43;;;;;;;472.80;442.37;;;10.00;99.90;;;;;;5012536;28;20644;-78
2021/12/17 10:43:14;;;;;;;443.13;414.83;;;10.00;99.90;;;;;;5014066;28;20190;-80
2021/12/17 10:45:45;;;;;;;416.77;389.90;;;9.90;99.90;;;;;;5014613;28;20198;-81
2021/12/17 10:51:14;;;;;;;393.90;368.90;;;9.90;99.90;;;;;;5020629;28;20219;-80
2021/12/17 10:53:56;;;;;;;377.97;354.07;;;9.80;99.90;;;;;;5030893;28;20187;-79
2021/12/17 10:56:32;;;;;;;362.70;339.67;;;9.80;99.90;;;;;;5012958;28;20194;-79
2021/12/17 10:59:09;;;;;;;348.13;326.33;;;9.80;99.90;;;;;;5023396;28;20269;-80
2021/12/17 11:02:01;;;;;;;337.70;316.57;;;9.80;99.90;;;;;;5012374;28;20499;-79
2021/12/17 11:04:41;;;;;;;320.80;300.47;;;9.80;99.90;;;;;;5009011;28;20329;-80
2021/12/17 11:07:10;;;;;;;308.30;289.03;;;9.80;99.90;;;;;;5011382;28;20218;-80
2021/12/17 11:09:40;;;;;;;302.93;284.23;;;9.80;99.90;;;;;;5012449;28;20237;-80
2021/12/17 11:12:29;;;;;;;288.23;270.33;;;9.70;99.90;;;;;;5011928;28;20250;-80
2021/12/17 11:15:19;;;;;;;282.73;265.27;;;9.70;99.90;;;;;;5029677;28;20203;-80
2021/12/17 11:18:05;;;;;;;268.47;252.07;;;9.80;99.90;;;;;;5030507;28;20182;-79
2021/12/17 11:20:34;;;;;;;264.17;247.83;;;9.70;99.90;;;;;;5028612;28;20198;-79
2021/12/17 11:23:06;;;;;;;273.90;257.43;;;9.70;99.90;;;;;;5027159;28;20227;-80
2021/12/17 11:25:32;;;;;;;260.63;244.73;;;9.70;99.90;;;;;;5012870;28;20233;-80
2021/12/17 11:27:59;;;;;;;258.47;242.47;;;9.70;99.90;;;;;;4996496;28;20221;-80
2021/12/17 11:30:27;;;;;;;261.07;245.27;;;9.70;99.90;;;;;;5011920;28;20248;-80
2021/12/17 11:32:54;;;;;;;251.63;236.40;;;9.70;99.90;;;;;;5011134;28;20357;-80
2021/12/17 11:35:21;;;;;;;245.97;230.93;;;9.70;99.90;;;;;;5029772;28;20565;-80
2021/12/17 11:37:50;;;;;;;244.03;228.97;;;9.70;99.90;;;;;;5011058;28;20536;-81
2021/12/17 11:40:37;;;;;;;240.43;225.83;;;9.70;99.90;;;;;;5009820;28;20529;-80
2021/12/17 11:43:23;;;;;;;236.83;222.53;;;9.80;99.90;;;;;;5010917;28;20191;-79
2021/12/17 11:46:07;;;;;;;231.00;216.83;;;9.80;99.90;;;;;;5028605;28;20716;-79
2021/12/17 11:48:34;;;;;;;225.93;212.13;;;9.80;99.90;;;;;;5011761;28;20236;-80
2021/12/17 11:51:13;;;;;;;225.47;211.77;;;9.80;99.90;;;;;;5003754;28;20298;-80
2021/12/17 11:53:58;;;;;;;228.50;214.87;;;9.70;99.90;;;;;;5028135;28;20230;-80
2021/12/17 11:56:35;;;;;;;227.50;213.80;;;9.70;99.90;;;;;;5011358;28;20178;-80
2021/12/17 11:59:02;;;;;;;221.70;208.50;;;9.70;99.90;;;;;;5026083;28;20498;-80
2021/12/17 12:01:49;;;;;;;225.50;212.40;;;9.70;99.90;;;;;;4995190;28;20198;-79
2021/12/17 12:04:37;;;;;;;225.77;212.87;;;9.60;99.90;;;;;;5010498;28;20320;-80
2021/12/17 12:07:09;;;;;;;218.50;205.90;;;9.60;99.90;;;;;;5028289;28;20182;-80
2021/12/17 12:09:57;;;;;;;222.57;209.70;;;9.70;99.90;;;;;;5027490;28;20179;-79
2021/12/17 12:12:24;;;;;;;210.13;197.90;;;9.70;99.90;;;;;;5010156;28;20277;-80
2021/12/17 12:14:49;;;;;;;200.40;189.00;;;9.70;99.90;;;;;;5026390;28;20760;-79
2021/12/17 12:17:53;;;;;;;209.03;197.33;;;9.80;99.90;;;;;;5020247;28;20195;-79
2021/12/17 12:20:44;;;;;;;199.73;188.43;;;9.70;99.90;;;;;;5028441;28;20202;-79
2021/12/17 12:23:29;;;;;;;201.07;189.77;;;9.70;99.90;;;;;;5001455;28;20280;-79
2021/12/17 12:26:01;;;;;;;196.90;185.97;;;9.70;99.90;;;;;;4984437;28;20206;-79
2021/12/17 12:28:45;;;;;;;191.63;180.63;;;9.60;99.90;;;;;;4991142;28;20220;-79
2021/12/17 12:31:12;;;;;;;188.03;177.63;;;9.60;99.90;;;;;;5007587;28;20305;-79
2021/12/17 12:34:04;;;;;;;189.50;178.77;;;9.60;99.90;;;;;;5007694;28;20184;-79
2021/12/17 12:37:00;;;;;;;185.00;174.70;;;9.50;99.90;;;;;;5008997;28;20241;-79
2021/12/17 12:40:02;;;;;;;188.13;177.83;;;9.40;99.90;;;;;;5007948;28;20195;-80
2021/12/17 12:42:35;;;;;;;181.90;171.90;;;9.40;99.90;;;;;;5008179;28;20203;-80
2021/12/17 12:45:03;;;;;;;179.03;168.83;;;9.40;99.90;;;;;;5006852;28;20608;-80
2021/12/17 12:47:35;;;;;;;175.67;165.77;;;9.40;99.90;;;;;;4992085;28;20286;-80
2021/12/17 12:50:11;;;;;;;177.70;167.87;;;9.30;99.90;;;;;;5009003;28;20207;-79
2021/12/17 12:52:51;;;;;;;175.20;165.27;;;9.40;99.90;;;;;;4990907;28;20215;-81
2021/12/17 12:55:22;;;;;;;170.53;160.93;;;9.40;99.90;;;;;;4989803;28;20215;-80
2021/12/17 12:57:52;;;;;;;169.50;159.80;;;9.40;99.90;;;;;;5009998;28;20191;-80
2021/12/17 13:00:29;;;;;;;167.50;158.13;;;9.30;99.90;;;;;;4984545;28;20199;-80
2021/12/17 13:02:59;;;;;;;161.70;152.67;;;9.30;99.90;;;;;;5008497;28;20299;-81
2021/12/17 13:05:25;;;;;;;166.90;157.40;;;9.30;99.90;;;;;;5008669;28;20203;-80
2021/12/17 13:07:56;;;;;;;162.70;153.53;;;9.30;99.90;;;;;;4991267;28;20210;-80
2021/12/17 13:10:25;;;;;;;160.70;151.77;;;9.40;99.90;;;;;;4992040;28;20563;-81
2021/12/17 13:13:03;;;;;;;162.17;153.17;;;9.40;99.90;;;;;;4983200;28;20245;-81
2021/12/17 13:23:20;;;;;;;159.03;150.03;;;9.40;99.90;;;;;;5025175;28;20235;-80
2021/12/17 13:25:45;;;;;;;157.17;148.50;;;9.40;99.90;;;;;;5028472;28;20179;-82
2021/12/17 13:28:12;;;;;;;158.70;149.77;;;9.30;99.90;;;;;;4995704;28;20198;-80
2021/12/17 13:30:38;;;;;;;158.37;149.77;;;9.30;99.90;;;;;;5028030;28;20255;-79
2021/12/17 13:33:04;;;;;;;159.33;150.23;;;9.30;99.90;;;;;;5028887;28;20265;-80
2021/12/17 13:35:34;;;;;;;158.63;149.80;;;9.30;99.90;;;;;;5009861;28;20201;-80
2021/12/17 13:38:01;;;;;;;156.43;147.23;;;9.40;99.90;;;;;;5028750;28;20207;-81
2021/12/17 13:40:28;;;;;;;154.67;146.10;;;9.40;99.90;;;;;;5013071;28;20202;-79
2021/12/17 13:42:55;;;;;;;155.23;146.47;;;9.40;99.90;;;;;;5006296;28;20334;-79
2021/12/17 13:45:22;;;;;;;157.13;148.30;;;9.40;99.90;;;;;;5030716;28;20194;-79
2021/12/17 13:47:54;;;;;;;155.33;146.53;;;9.40;99.90;;;;;;5030503;28;20325;-80
2021/12/17 13:50:25;;;;;;;154.30;145.30;;;9.40;99.90;;;;;;5030004;28;20681;-79
2021/12/17 13:53:00;;;;;;;154.93;146.53;;;9.40;99.90;;;;;;5028752;28;20702;-79
2021/12/17 13:55:35;;;;;;;152.33;143.93;;;9.30;99.90;;;;;;5029982;28;20973;-80
2021/12/17 13:58:05;;;;;;;151.77;143.10;;;9.30;99.90;;;;;;5029833;28;20285;-79
2021/12/17 14:00:42;;;;;;;150.63;142.23;;;9.30;99.90;;;;;;5022085;28;20654;-81
2021/12/17 14:03:14;;;;;;;153.47;144.97;;;9.30;99.90;;;;;;4998116;28;20190;-80
2021/12/17 14:05:44;;;;;;;152.87;144.07;;;9.30;99.90;;;;;;5014176;28;20575;-81
2021/12/17 14:08:19;;;;;;;155.23;146.57;;;9.30;99.90;;;;;;5013361;28;20716;-79
2021/12/17 14:10:45;;;;;;;155.13;146.63;;;9.30;99.90;;;;;;5012255;28;20253;-79
2021/12/17 14:13:21;;;;;;;152.63;144.13;;;9.30;99.90;;;;;;5013236;28;20272;-78
2021/12/17 14:15:48;;;;;;;152.70;144.77;;;9.30;99.90;;;;;;4996836;28;20221;-79
2021/12/17 14:18:20;;;;;;;151.97;143.70;;;9.20;99.90;;;;;;5031315;28;20186;-80
2021/12/17 14:20:48;;;;;;;149.63;141.53;;;9.20;99.90;;;;;;5011130;28;20698;-79
2021/12/17 14:23:40;;;;;;;149.43;141.33;;;9.20;99.90;;;;;;5012984;28;20604;-79
2021/12/17 14:26:08;;;;;;;148.53;140.40;;;9.10;99.90;;;;;;5025543;28;20263;-78
2021/12/17 14:28:40;;;;;;;148.40;140.40;;;9.10;99.90;;;;;;5012591;28;20188;-79
2021/12/17 14:31:14;;;;;;;149.83;141.73;;;9.10;99.90;;;;;;5030568;28;20211;-80
2021/12/17 14:33:41;;;;;;;146.20;138.20;;;9.10;99.90;;;;;;5012547;28;20174;-78
2021/12/17 14:36:13;;;;;;;148.40;140.50;;;9.10;99.90;;;;;;5030127;28;20655;-79
2021/12/17 14:38:46;;;;;;;146.30;138.17;;;9.10;99.90;;;;;;5022070;28;20286;-79
2021/12/17 14:41:37;;;;;;;149.43;141.47;;;9.10;99.90;;;;;;5027740;28;20187;-80
2021/12/17 14:44:36;;;;;;;150.33;141.93;;;9.10;99.90;;;;;;5011693;28;20686;-79
2021/12/17 14:47:17;;;;;;;149.07;140.67;;;9.10;99.90;;;;;;5030439;28;20175;-80
2021/12/17 15:05:58;;;;;;;144.03;136.13;;;9.10;99.90;;;;;;5029101;28;20206;-79
2021/12/17 15:08:24;;;;;;;141.10;133.43;;;9.20;99.90;;;;;;5031311;28;20567;-79
2021/12/17 15:10:53;;;;;;;140.57;132.77;;;9.10;99.90;;;;;;5012955;28;20281;-81
2021/12/17 15:13:19;;;;;;;142.53;134.47;;;9.10;99.90;;;;;;4973217;28;20705;-80
2021/12/17 15:15:44;;;;;;;140.27;132.53;;;9.10;99.90;;;;;;4995143;28;20187;-79
2021/12/17 15:18:17;;;;;;;139.43;131.80;;;9.10;99.90;;;;;;5020452;28;20187;-79
2021/12/17 15:20:52;;;;;;;136.13;128.63;;;9.10;99.90;;;;;;5029552;28;20194;-80
2021/12/17 15:23:20;;;;;;;134.73;127.50;;;9.10;99.90;;;;;;4986469;28;20242;-79
2021/12/17 15:25:47;;;;;;;135.33;128.03;;;9.20;99.90;;;;;;5010476;28;20190;-79
2021/12/17 15:28:15;;;;;;;134.07;126.63;;;9.20;99.90;;;;;;5003495;28;20226;-79
2021/12/17 15:30:44;;;;;;;132.53;125.53;;;9.20;99.90;;;;;;5031701;28;20666;-80
2021/12/17 15:33:11;;;;;;;129.93;122.93;;;9.20;99.90;;;;;;5003833;28;20206;-80
2021/12/17 15:35:37;;;;;;;133.60;126.30;;;9.20;99.90;;;;;;5027397;28;20206;-80
2021/12/17 15:38:07;;;;;;;127.10;120.10;;;9.30;99.90;;;;;;4996192;28;20524;-79
2021/12/17 15:40:38;;;;;;;128.87;121.97;;;9.30;99.90;;;;;;5012341;28;20225;-79
2021/12/17 15:43:04;;;;;;;129.03;122.37;;;9.30;99.90;;;;;;5028735;28;20186;-80
2021/12/17 15:45:34;;;;;;;127.83;120.83;;;9.30;99.90;;;;;;5030950;28;20598;-79